Time;durP1;ratioP1;P1;durP2;ratioP2;P2;SDS_P1;SDS_P2;PMS_P1;PMS_P2;Temp;Humidity;BMP_temperature;BMP_pressure;BME280_temperature;BME280_humidity;BME280_pressure;Samples;Min_cycle;Max_cycle;Signal;HPM_P1;HPM_P2
2022/01/28 00:00:13;;;;;;;14.82;1.63;;;;;;;3.52;100.00;102968.78;5072374;28;20051;-46
2022/01/28 00:05:22;;;;;;;17.45;1.88;;;;;;;3.45;100.00;102983.19;5071045;28;20036;-46
2022/01/28 00:07:49;;;;;;;19.65;1.75;;;;;;;3.43;100.00;102987.66;5063096;28;20048;-45
2022/01/28 00:10:15;;;;;;;19.85;1.58;;;;;;;3.41;100.00;102992.16;5055150;28;20056;-47
2022/01/28 00:13:02;;;;;;;22.38;1.85;;;;;;;3.36;100.00;103000.25;5050752;28;20150;-44
2022/01/28 00:15:49;;;;;;;16.85;1.90;;;;;;;3.31;100.00;102996.06;5056515;28;20032;-48
2022/01/28 00:36:30;;;;;;;19.13;2.08;;;;;;;3.29;100.00;103012.00;5074594;28;20154;-46
2022/01/28 00:40:20;;;;;;;17.85;1.83;;;;;;;3.11;100.00;103002.16;5054914;28;20048;-46
2022/01/28 00:42:45;;;;;;;11.30;1.60;;;;;;;3.14;100.00;103004.66;5053565;28;20444;-47
2022/01/28 00:45:10;;;;;;;10.93;1.75;;;;;;;3.22;100.00;103007.84;5053994;28;20032;-47
2022/01/28 00:47:36;;;;;;;13.95;2.08;;;;;;;3.34;100.00;102996.81;5054543;28;20391;-47
2022/01/28 00:50:01;;;;;;;16.38;1.83;;;;;;;3.47;100.00;103004.25;5053263;28;20189;-47
2022/01/28 00:52:27;;;;;;;14.02;1.70;;;;;;;3.50;100.00;103006.78;5054318;28;20125;-47
2022/01/28 00:54:52;;;;;;;19.38;1.85;;;;;;;3.56;100.00;103011.78;5053701;28;20021;-47
2022/01/28 00:57:17;;;;;;;25.77;2.15;;;;;;;3.62;100.00;103016.00;5053230;28;20028;-46
2022/01/28 00:59:43;;;;;;;21.08;1.77;;;;;;;3.66;100.00;103007.84;5055072;28;20051;-48
2022/01/28 01:02:08;;;;;;;25.48;2.17;;;;;;;3.63;100.00;103000.09;5053661;28;20107;-45
2022/01/28 01:04:33;;;;;;;21.60;2.03;;;;;;;3.63;100.00;103009.78;5057618;28;20048;-46
2022/01/28 01:07:01;;;;;;;23.95;2.25;;;;;;;3.60;100.00;103010.78;5058105;28;20055;-49
2022/01/28 01:09:26;;;;;;;13.10;1.58;;;;;;;3.51;100.00;103004.06;5039200;28;20538;-46
2022/01/28 01:11:51;;;;;;;15.45;1.95;;;;;;;3.54;100.00;103011.84;5037807;28;20025;-47
2022/01/28 01:14:16;;;;;;;17.27;1.80;;;;;;;3.52;100.00;103019.00;5038224;28;20021;-46
2022/01/28 01:17:02;;;;;;;12.88;1.83;;;;;;;3.59;100.00;103010.81;5038366;28;20048;-46
2022/01/28 01:19:32;;;;;;;14.63;1.52;;;;;;;3.62;100.00;103014.19;5036503;28;20260;-46
2022/01/28 01:21:59;;;;;;;17.33;1.67;;;;;;;3.64;100.00;103008.84;5042657;28;20573;-49
2022/01/28 01:24:28;;;;;;;18.70;1.90;;;;;;;3.64;100.00;103015.00;5058059;28;20464;-46
2022/01/28 01:26:53;;;;;;;15.15;2.05;;;;;;;3.64;100.00;103011.50;5057632;28;20024;-44
2022/01/28 01:29:21;;;;;;;13.88;1.50;;;;;;;3.64;100.00;103022.91;5057317;28;20028;-49
2022/01/28 01:31:47;;;;;;;13.75;1.65;;;;;;;3.65;100.00;103026.41;5057790;28;20020;-45
2022/01/28 01:34:19;;;;;;;23.00;2.15;;;;;;;3.66;100.00;103021.06;5056377;28;20029;-48
2022/01/28 01:36:45;;;;;;;17.05;1.70;;;;;;;3.71;100.00;103026.19;5057440;28;20017;-46
2022/01/28 01:39:15;;;;;;;16.50;1.98;;;;;;;3.72;100.00;103035.84;5057822;28;20051;-48
2022/01/28 01:41:47;;;;;;;20.17;1.58;;;;;;;3.68;100.00;103050.97;5057069;28;20012;-45
2022/01/28 01:44:25;;;;;;;17.17;1.42;;;;;;;3.66;100.00;103055.41;5056698;28;20024;-50
2022/01/28 01:52:41;;;;;;;10.85;1.40;;;;;;;3.57;100.00;103069.00;5057826;28;20043;-48
2022/01/28 01:55:07;;;;;;;16.60;2.17;;;;;;;3.54;100.00;103061.19;5057828;28;20025;-45
2022/01/28 01:57:33;;;;;;;19.10;1.80;;;;;;;3.51;100.00;103082.44;5055772;28;20123;-45
2022/01/28 01:59:59;;;;;;;17.77;1.90;;;;;;;3.49;100.00;103079.88;5056399;28;20364;-45
2022/01/28 02:02:24;;;;;;;22.00;2.00;;;;;;;3.54;100.00;103090.25;5056634;28;20380;-46
2022/01/28 02:04:50;;;;;;;24.15;2.28;;;;;;;3.61;100.00;103094.38;5056181;28;20413;-46
2022/01/28 02:07:16;;;;;;;17.52;1.98;;;;;;;3.66;100.00;103104.78;5057030;28;20462;-48
2022/01/28 02:09:42;;;;;;;20.65;1.92;;;;;;;3.68;100.00;103108.22;5057879;28;20039;-48
2022/01/28 02:12:09;;;;;;;16.20;1.83;;;;;;;3.71;100.00;103100.16;5056369;28;20104;-49
2022/01/28 02:14:34;;;;;;;16.75;2.00;;;;;;;3.71;100.00;103103.66;5056017;28;20032;-47
2022/01/28 02:17:00;;;;;;;17.60;1.60;;;;;;;3.72;100.00;103101.91;5055960;28;20024;-45
2022/01/28 02:19:26;;;;;;;11.10;1.40;;;;;;;3.72;100.00;103099.25;5055508;28;21481;-45
2022/01/28 02:21:52;;;;;;;17.80;1.83;;;;;;;3.75;100.00;103101.75;5056867;28;20027;-45
2022/01/28 02:24:25;;;;;;;19.75;2.17;;;;;;;3.77;100.00;103101.69;5056701;28;20091;-48
2022/01/28 02:26:51;;;;;;;16.92;1.70;;;;;;;3.77;100.00;103109.63;5055831;28;20127;-48
2022/01/28 02:29:26;;;;;;;13.50;1.52;;;;;;;3.76;100.00;103116.72;5055647;28;20461;-46
2022/01/28 02:31:52;;;;;;;15.55;1.73;;;;;;;3.74;100.00;103116.75;5056522;28;20067;-48
2022/01/28 02:34:17;;;;;;;19.83;1.80;;;;;;;3.68;100.00;103116.13;5037622;28;20039;-45
2022/01/28 02:36:42;;;;;;;23.10;2.95;;;;;;;3.70;100.00;103119.59;5057143;28;20068;-48
2022/01/28 02:39:10;;;;;;;19.10;1.77;;;;;;;3.73;100.00;103115.06;5056824;28;20035;-51
2022/01/28 02:41:39;;;;;;;19.00;1.83;;;;;;;3.76;100.00;103121.13;5055349;28;20169;-45
2022/01/28 02:46:40;;;;;;;22.48;2.13;;;;;;;3.72;100.00;103117.75;5056140;28;20210;-46
2022/01/28 02:49:09;;;;;;;23.17;1.88;;;;;;;3.71;100.00;103130.09;5055575;28;20380;-47
2022/01/28 02:51:35;;;;;;;16.55;1.40;;;;;;;3.72;100.00;103131.81;5056300;28;20631;-46
2022/01/28 02:54:11;;;;;;;20.17;1.92;;;;;;;3.72;100.00;103133.63;5037293;28;20237;-44
2022/01/28 02:56:39;;;;;;;14.30;1.60;;;;;;;3.73;100.00;103133.56;5056127;28;20031;-49
2022/01/28 02:59:07;;;;;;;14.63;1.77;;;;;;;3.76;100.00;103129.91;5056102;28;20166;-47
2022/01/28 03:01:33;;;;;;;19.38;1.88;;;;;;;3.73;100.00;103137.97;5055284;28;20081;-47
2022/01/28 03:04:01;;;;;;;24.33;1.85;;;;;;;3.77;100.00;103142.22;5055079;28;20032;-46
2022/01/28 03:06:27;;;;;;;14.52;2.08;;;;;;;3.77;100.00;103147.50;5055177;28;20111;-45
2022/01/28 03:08:58;;;;;;;19.42;1.88;;;;;;;3.78;100.00;103151.00;5055905;28;20482;-46
2022/01/28 03:14:35;;;;;;;21.95;1.67;;;;;;;3.79;100.00;103145.66;5055300;28;20488;-49
2022/01/28 03:19:25;;;;;;;13.82;1.25;;;;;;;3.83;100.00;103149.91;5054885;28;20068;-47
2022/01/28 03:21:58;;;;;;;20.13;1.83;;;;;;;3.86;100.00;103149.78;5055478;28;20023;-49
2022/01/28 03:24:26;;;;;;;22.80;1.70;;;;;;;3.85;100.00;103156.00;5054956;28;20396;-48
2022/01/28 03:26:57;;;;;;;15.43;1.48;;;;;;;3.83;100.00;103149.91;5055128;28;20542;-46
2022/01/28 03:29:23;;;;;;;18.25;2.10;;;;;;;3.80;100.00;103152.69;5055504;28;20048;-48
2022/01/28 03:31:48;;;;;;;12.43;1.35;;;;;;;3.74;100.00;103147.63;5054789;28;20523;-45
2022/01/28 03:34:13;;;;;;;15.75;1.58;;;;;;;3.71;100.00;103142.47;5055215;28;20028;-48
2022/01/28 03:36:39;;;;;;;22.95;1.95;;;;;;;3.66;100.00;103139.13;5055091;28;20040;-48
2022/01/28 03:39:04;;;;;;;18.83;1.73;;;;;;;3.59;100.00;103148.22;5054101;28;20408;-46
2022/01/28 03:41:30;;;;;;;14.20;1.67;;;;;;;3.54;100.00;103149.25;5036816;28;20021;-45
2022/01/28 03:43:58;;;;;;;17.13;1.58;;;;;;;3.47;100.00;103154.84;5054791;28;20033;-50
2022/01/28 03:46:25;;;;;;;15.98;1.73;;;;;;;3.42;100.00;103157.63;5054657;28;20374;-45
2022/01/28 03:48:51;;;;;;;20.52;1.92;;;;;;;3.34;100.00;103157.94;5054294;28;20032;-46
2022/01/28 03:51:17;;;;;;;23.65;1.60;;;;;;;3.24;100.00;103164.47;5054623;28;20029;-47
2022/01/28 03:53:42;;;;;;;17.02;1.58;;;;;;;3.17;100.00;103155.03;5054262;28;20035;-45
2022/01/28 03:56:07;;;;;;;21.23;2.15;;;;;;;3.11;100.00;103155.28;5054631;28;20061;-49
2022/01/28 03:58:32;;;;;;;20.00;1.67;;;;;;;3.07;100.00;103166.84;5054922;28;20032;-47
2022/01/28 04:00:58;;;;;;;16.35;1.60;;;;;;;3.04;100.00;103174.88;5054814;28;20550;-48
2022/01/28 04:03:40;;;;;;;18.50;1.60;;;;;;;3.06;100.00;103178.34;5054513;28;20380;-48
2022/01/28 04:11:27;;;;;;;17.02;1.80;;;;;;;3.05;100.00;103182.75;5053742;28;20180;-45
2022/01/28 04:11:38;;;;;;;18.50;1.40;;;;;;;3.03;100.00;103171.38;5054218;28;20238;-48
2022/01/28 04:14:35;;;;;;;20.83;1.90;;;;;;;3.02;100.00;103174.94;5053547;28;20079;-47
2022/01/28 04:19:33;;;;;;;25.02;1.75;;;;;;;3.02;100.00;103174.94;5054338;28;20056;-48
2022/01/28 04:21:58;;;;;;;20.52;2.30;;;;;;;3.03;100.00;103183.72;5053518;28;20033;-45
2022/01/28 04:24:24;;;;;;;21.25;1.90;;;;;;;2.99;100.00;103177.69;5054986;28;20391;-46
2022/01/28 04:26:49;;;;;;;19.83;1.88;;;;;;;2.99;100.00;103175.91;5053762;28;20115;-47
2022/01/28 04:29:14;;;;;;;15.55;1.77;;;;;;;2.99;100.00;103177.69;5053862;28;20016;-45
2022/01/28 04:31:43;;;;;;;16.77;1.90;;;;;;;2.96;100.00;103189.22;5054826;28;20028;-46
2022/01/28 04:34:10;;;;;;;17.48;1.55;;;;;;;3.02;100.00;103196.06;5053496;28;20024;-47
2022/01/28 04:36:40;;;;;;;17.33;1.83;;;;;;;3.06;100.00;103194.19;5053559;28;20021;-47
2022/01/28 04:39:14;;;;;;;22.13;1.67;;;;;;;3.09;100.00;103194.94;5054007;28;20123;-45
2022/01/28 04:44:14;;;;;;;16.55;1.77;;;;;;;3.07;100.00;103203.81;5054284;28;20500;-51
2022/01/28 04:46:49;;;;;;;26.73;2.92;;;;;;;3.04;100.00;103199.50;5053783;28;20549;-48
2022/01/28 04:49:22;;;;;;;16.30;2.00;;;;;;;3.04;100.00;103198.63;5053676;28;20036;-46
2022/01/28 04:52:11;;;;;;;15.60;1.63;;;;;;;3.05;100.00;103197.72;5054271;28;20028;-45
2022/01/28 04:54:52;;;;;;;23.50;1.77;;;;;;;3.02;100.00;103204.00;5053854;28;20028;-44
2022/01/28 04:57:32;;;;;;;17.40;1.70;;;;;;;3.02;100.00;103209.28;5053313;28;20403;-49
2022/01/28 05:05:03;;;;;;;16.17;1.90;;;;;;;2.96;100.00;103220.03;5051310;28;20041;-45
2022/01/28 05:16:19;;;;;;;13.00;1.52;;;;;;;2.82;100.00;103228.44;4991724;28;20176;-43
2022/01/28 05:26:55;;;;;;;17.58;2.15;;;;;;;2.66;100.00;103243.03;5054090;28;20440;-45
2022/01/28 05:29:21;;;;;;;20.83;2.05;;;;;;;2.66;100.00;103250.94;5048463;28;20403;-45
2022/01/28 05:31:49;;;;;;;14.73;1.75;;;;;;;2.63;100.00;103240.50;5052624;28;20024;-45
2022/01/28 05:34:15;;;;;;;14.30;2.08;;;;;;;2.57;100.00;103246.84;5048093;28;20523;-46
2022/01/28 05:36:40;;;;;;;17.88;2.15;;;;;;;2.56;100.00;103256.53;5054065;28;20036;-45
2022/01/28 05:39:06;;;;;;;17.23;1.85;;;;;;;2.54;100.00;103253.06;5053820;28;20572;-47
2022/01/28 05:41:32;;;;;;;17.95;1.92;;;;;;;2.54;100.00;103254.84;5052443;28;20046;-46
2022/01/28 05:43:57;;;;;;;16.05;1.95;;;;;;;2.52;100.00;103261.94;5053862;28;20021;-45
2022/01/28 05:46:27;;;;;;;16.13;2.00;;;;;;;2.51;100.00;103262.84;5053283;28;20331;-44
2022/01/28 05:48:52;;;;;;;14.80;1.40;;;;;;;2.54;100.00;103262.75;5052814;28;20115;-44
2022/01/28 05:51:18;;;;;;;15.48;2.13;;;;;;;2.53;100.00;103267.19;5050798;28;20452;-46
2022/01/28 05:53:44;;;;;;;18.40;1.95;;;;;;;2.54;100.00;103271.53;5052453;28;20024;-45
2022/01/28 05:56:09;;;;;;;16.55;1.92;;;;;;;2.53;100.00;103267.19;5036959;28;20032;-45
2022/01/28 05:58:34;;;;;;;12.38;1.67;;;;;;;2.53;100.00;103269.81;5047201;28;20030;-48
2022/01/28 06:00:59;;;;;;;18.95;1.88;;;;;;;2.53;100.00;103272.44;5045612;28;20418;-48
2022/01/28 06:03:25;;;;;;;26.63;1.63;;;;;;;2.50;100.00;103287.53;5044472;28;20024;-45
2022/01/28 06:05:50;;;;;;;17.80;1.45;;;;;;;2.44;100.00;103288.56;5045648;28;20040;-45
2022/01/28 06:08:15;;;;;;;14.98;1.70;;;;;;;2.39;100.00;103283.44;5044977;28;20437;-45
2022/01/28 06:10:40;;;;;;;17.00;1.90;;;;;;;2.38;100.00;103288.75;5047960;28;20085;-48
2022/01/28 06:13:06;;;;;;;18.77;1.88;;;;;;;2.35;100.00;103288.84;5049967;28;20530;-48
2022/01/28 06:15:31;;;;;;;16.58;1.92;;;;;;;2.34;100.00;103297.66;5027234;28;20078;-45
2022/01/28 06:17:57;;;;;;;18.83;1.88;;;;;;;2.31;100.00;103301.28;5046455;28;20020;-45
2022/01/28 06:20:22;;;;;;;20.73;2.13;;;;;;;2.26;100.00;103290.00;5048216;28;20079;-45
2022/01/28 06:22:48;;;;;;;23.70;1.90;;;;;;;2.22;100.00;103289.22;5048040;28;20025;-49
2022/01/28 06:25:15;;;;;;;21.90;2.78;;;;;;;2.23;100.00;103300.63;5049045;28;20044;-44
2022/01/28 06:27:41;;;;;;;20.38;2.25;;;;;;;2.22;100.00;103305.06;5048797;28;20020;-46
2022/01/28 06:30:07;;;;;;;21.67;2.40;;;;;;;2.22;100.00;103307.69;5052147;28;20036;-43
2022/01/28 06:32:33;;;;;;;20.67;2.42;;;;;;;2.24;100.00;103316.41;5046750;28;20029;-47
2022/01/28 06:35:07;;;;;;;15.10;2.53;;;;;;;2.22;100.00;103319.97;5043140;28;20511;-44
2022/01/28 06:37:34;;;;;;;16.90;2.20;;;;;;;2.23;100.00;103327.00;5023426;28;20029;-46
2022/01/28 06:39:59;;;;;;;23.48;2.50;;;;;;;2.23;100.00;103324.38;5070738;28;20032;-46
2022/01/28 06:42:24;;;;;;;22.95;2.40;;;;;;;2.19;100.00;103327.97;5075963;28;20475;-44
2022/01/28 06:44:49;;;;;;;12.68;1.67;;;;;;;2.12;100.00;103324.69;5063703;28;20025;-43
2022/01/28 06:47:15;;;;;;;18.95;1.95;;;;;;;2.06;100.00;103340.66;5053014;28;20061;-44
2022/01/28 06:49:40;;;;;;;22.63;2.30;;;;;;;2.04;100.00;103342.50;5053864;28;20287;-44
2022/01/28 06:52:06;;;;;;;19.58;2.63;;;;;;;2.01;100.00;103346.06;5063513;28;20472;-48
2022/01/28 06:54:31;;;;;;;21.23;1.90;;;;;;;1.96;100.00;103358.50;5064918;28;20024;-43
2022/01/28 06:56:57;;;;;;;13.40;1.70;;;;;;;1.88;100.00;103352.59;5064144;28;20086;-48
2022/01/28 06:59:22;;;;;;;14.50;1.85;;;;;;;1.77;100.00;103350.25;5055055;28;20050;-44
2022/01/28 07:01:47;;;;;;;20.55;2.03;;;;;;;1.68;100.00;103368.94;5052640;28;20040;-47
2022/01/28 07:04:14;;;;;;;10.27;1.50;;;;;;;1.64;100.00;103377.84;5063025;28;20055;-45
2022/01/28 07:06:39;;;;;;;9.30;1.50;;;;;;;1.60;100.00;103386.72;5064374;28;20028;-46
2022/01/28 07:09:04;;;;;;;17.55;2.08;;;;;;;1.58;100.00;103388.50;5063092;28;20562;-44
2022/01/28 07:11:30;;;;;;;20.25;2.15;;;;;;;1.54;100.00;103387.72;5064465;28;20020;-45
2022/01/28 07:13:55;;;;;;;15.63;2.03;;;;;;;1.47;100.00;103386.16;5064944;28;20109;-44
2022/01/28 07:16:20;;;;;;;20.35;2.40;;;;;;;1.43;100.00;103389.78;5063609;28;20028;-43
2022/01/28 07:18:45;;;;;;;12.52;1.75;;;;;;;1.34;100.00;103393.53;5063571;28;20024;-45
2022/01/28 07:21:11;;;;;;;19.95;2.55;;;;;;;1.27;100.00;103394.56;5064982;28;20052;-46
2022/01/28 07:23:36;;;;;;;18.58;1.98;;;;;;;1.25;100.00;103393.75;5062666;28;20316;-47
2022/01/28 07:26:01;;;;;;;11.68;1.88;;;;;;;1.21;100.00;103398.22;5044529;28;20317;-46
2022/01/28 07:28:27;;;;;;;12.40;1.73;;;;;;;1.15;100.00;103392.22;5064426;28;20167;-43
2022/01/28 07:30:52;;;;;;;14.85;2.70;;;;;;;1.11;100.00;103400.19;5065299;28;20024;-43
2022/01/28 07:33:18;;;;;;;16.23;3.25;;;;;;;1.13;100.00;103415.94;5062471;28;20422;-45
2022/01/28 07:35:43;;;;;;;15.55;2.53;;;;;;;1.16;100.00;103415.03;5069689;28;20128;-45
2022/01/28 07:38:10;;;;;;;21.75;2.30;;;;;;;1.16;100.00;103412.41;5061342;28;20025;-47
2022/01/28 07:40:35;;;;;;;19.98;2.10;;;;;;;1.16;100.00;103413.25;5047813;28;20519;-44
2022/01/28 07:43:00;;;;;;;11.85;2.03;;;;;;;1.13;100.00;103423.84;5054361;28;20108;-45
2022/01/28 07:45:26;;;;;;;21.60;2.45;;;;;;;1.10;100.00;103423.91;5055258;28;20029;-43
2022/01/28 07:47:51;;;;;;;22.45;2.67;;;;;;;1.10;100.00;103430.06;5053200;28;20039;-43
2022/01/28 07:50:17;;;;;;;22.20;2.72;;;;;;;1.09;100.00;103427.47;5037010;28;20388;-45
2022/01/28 07:52:43;;;;;;;20.60;3.08;;;;;;;1.10;100.00;103416.91;5055690;28;20099;-44
2022/01/28 07:55:10;;;;;;;26.55;2.88;;;;;;;1.11;100.00;103420.41;5055039;28;20465;-45
2022/01/28 07:57:36;;;;;;;16.98;2.83;;;;;;;1.09;100.00;103425.69;5054231;28;20031;-46
2022/01/28 08:00:03;;;;;;;26.70;3.97;;;;;;;1.12;100.00;103427.38;5055157;28;20024;-48
2022/01/28 08:02:28;;;;;;;31.48;5.20;;;;;;;1.17;100.00;103437.81;5052979;28;20782;-47
2022/01/28 08:04:54;;;;;;;31.88;5.57;;;;;;;1.21;100.00;103440.34;5054669;28;20025;-44
2022/01/28 08:07:21;;;;;;;28.90;4.95;;;;;;;1.23;100.00;103442.94;5055352;28;20157;-45
2022/01/28 08:09:47;;;;;;;31.27;5.97;;;;;;;1.25;100.00;103449.03;5054628;28;20119;-44
2022/01/28 08:12:12;;;;;;;30.00;6.25;;;;;;;1.23;100.00;103451.69;5053979;28;20028;-48
2022/01/28 08:14:37;;;;;;;27.50;5.57;;;;;;;1.22;100.00;103451.72;5054742;28;20108;-46
2022/01/28 08:17:03;;;;;;;22.90;5.80;;;;;;;1.23;100.00;103453.47;5034953;28;20131;-47
2022/01/28 08:19:28;;;;;;;25.08;5.32;;;;;;;1.23;100.00;103466.63;5052157;28;20056;-49
2022/01/28 08:21:53;;;;;;;22.98;4.65;;;;;;;1.22;100.00;103465.78;5053488;28;20155;-44
2022/01/28 08:24:18;;;;;;;21.38;3.88;;;;;;;1.26;100.00;103470.03;5054645;28;20571;-44
2022/01/28 08:26:44;;;;;;;23.60;4.35;;;;;;;1.26;100.00;103472.69;5053303;28;20113;-45
2022/01/28 08:29:09;;;;;;;18.27;3.67;;;;;;;1.32;100.00;103478.69;5054313;28;20026;-50
2022/01/28 08:31:35;;;;;;;16.70;3.40;;;;;;;1.36;100.00;103480.34;5053414;28;20231;-49
2022/01/28 08:34:01;;;;;;;21.25;3.72;;;;;;;1.40;100.00;103482.03;5054456;28;20028;-46
2022/01/28 08:36:27;;;;;;;26.40;4.40;;;;;;;1.44;100.00;103489.81;5057475;28;20029;-46
2022/01/28 08:38:54;;;;;;;29.13;4.68;;;;;;;1.49;100.00;103492.31;5033136;28;20096;-45
2022/01/28 08:41:20;;;;;;;20.45;3.50;;;;;;;1.49;100.00;103487.06;5033457;28;20389;-47
2022/01/28 08:43:46;;;;;;;21.83;4.00;;;;;;;1.55;100.00;103480.81;5033063;28;20395;-46
2022/01/28 08:46:11;;;;;;;18.13;4.25;;;;;;;1.57;100.00;103485.13;5041358;28;20380;-45
2022/01/28 08:48:37;;;;;;;26.75;4.25;;;;;;;1.65;100.00;103492.84;5053206;28;20345;-46
2022/01/28 08:51:02;;;;;;;23.45;4.10;;;;;;;1.66;100.00;103484.91;5034767;28;20024;-47
2022/01/28 08:53:28;;;;;;;22.08;3.45;;;;;;;1.76;100.00;103487.28;5054461;28;20538;-49
2022/01/28 08:55:53;;;;;;;29.92;3.45;;;;;;;1.83;100.00;103492.38;5053519;28;20566;-45
2022/01/28 08:58:18;;;;;;;18.23;3.85;;;;;;;1.91;100.00;103497.44;5054541;28;20024;-45
2022/01/28 09:00:47;;;;;;;22.80;3.47;;;;;;;1.98;100.00;103492.88;5053970;28;20107;-45
2022/01/28 09:03:17;;;;;;;20.02;3.45;;;;;;;2.03;100.00;103491.00;5054664;28;20043;-44
2022/01/28 09:05:43;;;;;;;16.27;3.40;;;;;;;2.10;100.00;103492.56;5058336;28;20123;-45
2022/01/28 09:08:09;;;;;;;18.38;4.50;;;;;;;2.17;100.00;103494.16;5053850;28;20608;-50
2022/01/28 09:10:37;;;;;;;21.17;4.35;;;;;;;2.21;100.00;103493.16;5054658;28;20082;-46
2022/01/28 09:15:29;;;;;;;23.35;4.25;;;;;;;2.40;100.00;103497.91;5040347;28;20500;-46
2022/01/28 09:17:57;;;;;;;20.92;4.57;;;;;;;2.50;100.00;103493.25;5062752;28;20123;-47
2022/01/28 09:20:22;;;;;;;21.63;4.60;;;;;;;2.57;100.00;103484.25;5060687;28;20052;-43
2022/01/28 09:22:48;;;;;;;20.52;5.13;;;;;;;2.65;100.00;103497.22;5062400;28;20020;-46
2022/01/28 09:25:13;;;;;;;30.33;5.72;;;;;;;2.68;100.00;103497.13;5061155;28;20039;-44
2022/01/28 09:27:38;;;;;;;25.42;4.72;;;;;;;2.71;100.00;103499.69;5065447;28;20130;-45
2022/01/28 09:30:04;;;;;;;15.52;5.40;;;;;;;2.75;100.00;103512.75;5057332;28;20028;-47
2022/01/28 09:32:29;;;;;;;20.55;5.47;;;;;;;2.81;100.00;103516.97;5057239;28;20048;-43
2022/01/28 09:34:54;;;;;;;18.30;5.60;;;;;;;2.87;100.00;103519.47;5057726;28;20360;-46
2022/01/28 09:37:20;;;;;;;24.65;7.10;;;;;;;2.94;100.00;103518.34;5057372;28;20210;-44
2022/01/28 09:39:46;;;;;;;29.80;6.47;;;;;;;3.01;100.00;103519.03;5057337;28;20102;-49
2022/01/28 09:42:15;;;;;;;23.25;6.50;;;;;;;3.07;100.00;103520.63;5057758;28;20044;-45
2022/01/28 09:44:42;;;;;;;28.17;6.70;;;;;;;3.12;100.00;103518.72;5057701;28;20032;-44
2022/01/28 09:47:07;;;;;;;38.03;7.07;;;;;;;3.18;100.00;103516.75;5056951;28;20384;-45
2022/01/28 09:49:33;;;;;;;28.42;7.30;;;;;;;3.26;100.00;103526.22;5057014;28;20343;-45
2022/01/28 09:51:58;;;;;;;25.40;6.68;;;;;;;3.33;100.00;103523.34;5057175;28;20174;-45
2022/01/28 09:54:24;;;;;;;24.63;7.57;;;;;;;3.40;100.00;103531.09;5056979;28;20100;-47
2022/01/28 09:56:50;;;;;;;24.52;7.22;;;;;;;3.51;100.00;103527.19;5055608;28;20149;-45
2022/01/28 09:59:15;;;;;;;35.78;7.93;;;;;;;3.62;100.00;103533.91;5056862;28;20047;-45
2022/01/28 10:01:51;;;;;;;30.95;8.10;;;;;;;3.71;100.00;103528.31;5056527;28;20032;-49
2022/01/28 10:04:18;;;;;;;25.08;7.60;;;;;;;3.80;100.00;103530.69;5057422;28;20040;-44
2022/01/28 10:06:44;;;;;;;23.25;7.60;;;;;;;3.88;100.00;103525.97;5057263;28;20396;-46
2022/01/28 10:09:10;;;;;;;25.95;7.35;;;;;;;3.99;100.00;103528.28;5063161;28;20020;-45
2022/01/28 10:11:37;;;;;;;20.83;7.10;;;;;;;4.08;100.00;103538.53;5068695;28;20070;-43
2022/01/28 10:14:16;;;;;;;25.08;6.65;;;;;;;4.18;100.00;103531.16;5070339;28;20044;-47
2022/01/28 10:16:42;;;;;;;21.98;7.10;;;;;;;4.29;100.00;103544.00;5062184;28;20065;-44
2022/01/28 10:19:09;;;;;;;31.00;7.18;;;;;;;4.39;100.00;103536.59;5063740;28;20105;-44
2022/01/28 10:21:43;;;;;;;18.45;6.25;;;;;;;4.49;100.00;103533.56;5051510;28;20036;-45
2022/01/28 10:24:17;;;;;;;25.05;6.60;;;;;;;4.59;100.00;103533.25;5057020;28;20089;-47
2022/01/28 10:26:52;;;;;;;30.02;5.60;;;;;;;4.71;100.00;103542.53;5059664;28;20480;-46
2022/01/28 10:29:25;;;;;;;23.85;6.20;;;;;;;4.82;100.00;103546.50;5068545;28;20024;-46
2022/01/28 10:31:53;;;;;;;26.60;6.13;;;;;;;4.93;100.00;103542.59;5056042;28;20044;-46
2022/01/28 10:34:30;;;;;;;26.83;5.53;;;;;;;5.00;100.00;103550.25;5056870;28;20127;-46
2022/01/28 10:37:21;;;;;;;25.77;6.20;;;;;;;5.11;100.00;103549.84;5035376;28;20340;-49
2022/01/28 10:39:50;;;;;;;26.13;5.00;;;;;;;5.21;100.00;103551.22;5037070;28;20548;-47
2022/01/28 10:42:19;;;;;;;24.80;4.85;;;;;;;5.31;100.00;103550.84;5036070;28;20037;-45
2022/01/28 10:44:58;;;;;;;29.67;5.13;;;;;;;5.39;100.00;103556.72;5052854;28;20052;-45
2022/01/28 10:47:50;;;;;;;18.52;3.47;;;;;;;5.49;100.00;103557.22;5036016;28;20025;-45
2022/01/28 10:50:34;;;;;;;22.88;4.25;;;;;;;5.63;100.00;103538.97;5039191;28;20037;-44
2022/01/28 10:53:10;;;;;;;30.50;5.15;;;;;;;5.73;100.00;103534.16;5056253;28;20162;-44
2022/01/28 10:55:45;;;;;;;21.27;3.72;;;;;;;5.82;100.00;103536.41;5056325;28;20013;-45
2022/01/28 10:58:14;;;;;;;21.33;3.72;;;;;;;5.93;100.00;103530.69;5056957;28;20028;-45
2022/01/28 11:00:42;;;;;;;25.63;4.20;;;;;;;6.02;100.00;103532.13;5060311;28;20476;-44
2022/01/28 11:03:11;;;;;;;16.83;4.03;;;;;;;6.08;100.00;103530.06;5054928;28;20260;-48
2022/01/28 11:05:37;;;;;;;28.20;3.55;;;;;;;6.21;100.00;103527.75;5055891;28;20139;-45
2022/01/28 11:08:05;;;;;;;23.38;3.65;;;;;;;6.37;100.00;103524.44;5062043;28;20028;-48
2022/01/28 11:10:30;;;;;;;21.55;4.32;;;;;;;6.59;100.00;103519.03;5061579;28;20396;-44
2022/01/28 11:12:58;;;;;;;32.17;4.60;;;;;;;6.83;100.00;103511.75;5056411;28;20352;-43
2022/01/28 11:15:23;;;;;;;19.05;3.10;;;;;;;6.99;100.00;103510.09;5054417;28;20493;-45
2022/01/28 11:17:50;;;;;;;14.40;1.88;;;;;;;7.01;100.00;103504.69;5042397;28;20036;-45
2022/01/28 11:20:20;;;;;;;16.95;2.00;;;;;;;7.01;100.00;103507.34;5061279;28;20110;-43
2022/01/28 11:23:08;;;;;;;13.20;1.80;;;;;;;7.06;100.00;103503.56;5064662;28;20387;-44
2022/01/28 11:25:39;;;;;;;10.50;1.58;;;;;;;7.02;100.00;103491.34;5029297;28;20117;-45
2022/01/28 11:28:07;;;;;;;10.57;1.17;;;;;;;6.90;100.00;103482.16;5042314;28;20059;-44
2022/01/28 11:30:33;;;;;;;13.82;1.50;;;;;;;6.85;97.60;103480.66;5057423;28;20020;-45
2022/01/28 11:33:08;;;;;;;17.08;1.80;;;;;;;6.92;98.66;103476.75;5053778;28;20020;-47
2022/01/28 11:35:35;;;;;;;7.28;1.35;;;;;;;7.04;98.99;103477.97;5052773;28;20468;-45
2022/01/28 11:38:03;;;;;;;12.77;1.73;;;;;;;7.19;100.00;103466.63;5055426;28;20094;-46
2022/01/28 11:40:41;;;;;;;14.57;1.60;;;;;;;7.31;100.00;103467.81;5054019;28;20484;-46
2022/01/28 11:43:31;;;;;;;15.30;1.95;;;;;;;7.53;100.00;103475.59;5036292;28;20139;-45
2022/01/28 11:46:08;;;;;;;10.98;2.05;;;;;;;7.66;97.94;103475.84;5053924;28;20040;-46
2022/01/28 11:48:51;;;;;;;13.68;2.50;;;;;;;7.80;99.48;103485.78;5036471;28;20039;-45
2022/01/28 11:51:33;;;;;;;15.73;2.33;;;;;;;7.91;95.04;103480.78;5054288;28;20024;-45
2022/01/28 11:54:02;;;;;;;12.88;2.03;;;;;;;8.05;95.45;103482.75;5053679;28;20032;-47
2022/01/28 11:56:30;;;;;;;23.23;3.83;;;;;;;8.22;94.03;103480.03;5054478;28;20538;-45
2022/01/28 11:59:09;;;;;;;19.83;3.08;;;;;;;8.40;95.95;103483.56;5054229;28;20066;-45
2022/01/28 12:01:39;;;;;;;13.73;2.10;;;;;;;8.63;95.11;103476.16;5052801;28;20115;-44
2022/01/28 12:04:27;;;;;;;16.15;2.22;;;;;;;8.73;94.97;103477.38;5052843;28;20078;-45
2022/01/28 12:06:57;;;;;;;12.48;2.10;;;;;;;8.87;90.25;103479.25;5054649;28;20173;-48
2022/01/28 12:09:23;;;;;;;14.10;2.20;;;;;;;9.10;87.58;103471.81;5055691;28;20488;-43
2022/01/28 12:11:48;;;;;;;12.82;2.10;;;;;;;9.24;86.23;103471.03;5053702;28;20115;-45
2022/01/28 12:14:14;;;;;;;15.65;2.72;;;;;;;9.37;86.74;103464.03;5053916;28;20073;-45
2022/01/28 12:16:46;;;;;;;24.27;2.78;;;;;;;9.56;83.58;103458.47;5054345;28;20024;-46
2022/01/28 12:19:22;;;;;;;16.45;3.13;;;;;;;9.58;85.96;103455.72;5055341;28;20051;-46
2022/01/28 12:22:10;;;;;;;15.45;2.83;;;;;;;9.58;84.97;103451.25;5054513;28;20107;-47
2022/01/28 12:24:37;;;;;;;14.43;2.88;;;;;;;9.40;83.41;103437.19;5055244;28;20031;-43
2022/01/28 12:27:13;;;;;;;17.52;2.65;;;;;;;9.00;83.11;103433.28;5054192;28;20276;-45
2022/01/28 12:29:47;;;;;;;13.13;2.40;;;;;;;8.72;84.81;103432.16;5046338;28;20287;-46